sensor_id;sensor_type;location;lat;lon;timestamp;temperature;humidity
32322;DHT22;61553;48.994;8.940;2023-06-10T00:01:52;16.40;99.90
32322;DHT22;61553;48.994;8.940;2023-06-10T00:04:20;16.20;99.90
32322;DHT22;61553;48.994;8.940;2023-06-10T00:06:46;16.10;99.90
32322;DHT22;61553;48.994;8.940;2023-06-10T00:09:15;16.00;99.90
32322;DHT22;61553;48.994;8.940;2023-06-10T00:11:41;15.90;99.90
32322;DHT22;61553;48.994;8.940;2023-06-10T00:14:08;15.80;99.90
32322;DHT22;61553;48.994;8.940;2023-06-10T00:16:34;15.70;99.90
32322;DHT22;61553;48.994;8.940;2023-06-10T00:19:00;15.60;99.90
32322;DHT22;61553;48.994;8.940;2023-06-10T00:21:30;15.50;99.90
32322;DHT22;61553;48.994;8.940;2023-06-10T00:24:03;15.40;99.90
32322;DHT22;61553;48.994;8.940;2023-06-10T00:26:30;15.30;99.90
32322;DHT22;61553;48.994;8.940;2023-06-10T00:28:56;15.20;99.90
32322;DHT22;61553;48.994;8.940;2023-06-10T00:31:21;15.20;99.90
32322;DHT22;61553;48.994;8.940;2023-06-10T00:33:47;15.10;99.90
32322;DHT22;61553;48.994;8.940;2023-06-10T00:36:13;15.00;99.90
32322;DHT22;61553;48.994;8.940;2023-06-10T00:38:38;14.90;99.90
32322;DHT22;61553;48.994;8.940;2023-06-10T00:41:06;14.80;99.90
32322;DHT22;61553;48.994;8.940;2023-06-10T00:43:32;14.70;99.90
32322;DHT22;61553;48.994;8.940;2023-06-10T00:45:57;14.60;99.90
32322;DHT22;61553;48.994;8.940;2023-06-10T00:48:23;14.60;99.90
32322;DHT22;61553;48.994;8.940;2023-06-10T00:50:50;14.50;99.90
32322;DHT22;61553;48.994;8.940;2023-06-10T00:53:16;14.50;99.90
32322;DHT22;61553;48.994;8.940;2023-06-10T00:55:42;14.40;99.90
32322;DHT22;61553;48.994;8.940;2023-06-10T00:58:08;14.30;99.90
32322;DHT22;61553;48.994;8.940;2023-06-10T01:00:34;14.20;99.90
32322;DHT22;61553;48.994;8.940;2023-06-10T01:03:00;14.20;99.90
32322;DHT22;61553;48.994;8.940;2023-06-10T01:05:25;14.10;99.90
32322;DHT22;61553;48.994;8.940;2023-06-10T01:08:28;14.00;99.90
32322;DHT22;61553;48.994;8.940;2023-06-10T01:10:59;14.00;99.90
32322;DHT22;61553;48.994;8.940;2023-06-10T01:13:26;13.90;99.90
32322;DHT22;61553;48.994;8.940;2023-06-10T01:15:55;13.80;99.90
32322;DHT22;61553;48.994;8.940;2023-06-10T01:18:21;13.80;99.90
32322;DHT22;61553;48.994;8.940;2023-06-10T01:20:47;13.80;99.90
32322;DHT22;61553;48.994;8.940;2023-06-10T01:23:15;13.70;99.90
32322;DHT22;61553;48.994;8.940;2023-06-10T01:25:55;13.60;99.90
32322;DHT22;61553;48.994;8.940;2023-06-10T01:28:40;13.60;99.90
32322;DHT22;61553;48.994;8.940;2023-06-10T01:33:47;13.50;99.90
32322;DHT22;61553;48.994;8.940;2023-06-10T01:36:15;13.50;99.90
32322;DHT22;61553;48.994;8.940;2023-06-10T01:38:44;13.40;99.90
32322;DHT22;61553;48.994;8.940;2023-06-10T01:41:15;13.30;99.90
32322;DHT22;61553;48.994;8.940;2023-06-10T01:43:43;13.30;99.90
32322;DHT22;61553;48.994;8.940;2023-06-10T01:46:09;13.20;99.90
32322;DHT22;61553;48.994;8.940;2023-06-10T01:48:35;13.20;99.90
32322;DHT22;61553;48.994;8.940;2023-06-10T01:51:00;13.10;99.90
32322;DHT22;61553;48.994;8.940;2023-06-10T01:53:26;13.00;99.90
32322;DHT22;61553;48.994;8.940;2023-06-10T01:55:52;13.00;99.90
32322;DHT22;61553;48.994;8.940;2023-06-10T01:58:17;12.90;99.90
32322;DHT22;61553;48.994;8.940;2023-06-10T02:00:43;12.90;99.90
32322;DHT22;61553;48.994;8.940;2023-06-10T02:03:08;12.90;99.90
32322;DHT22;61553;48.994;8.940;2023-06-10T02:05:34;12.80;99.90
32322;DHT22;61553;48.994;8.940;2023-06-10T02:08:00;12.80;99.90
32322;DHT22;61553;48.994;8.940;2023-06-10T02:10:26;12.70;99.90
32322;DHT22;61553;48.994;8.940;2023-06-10T02:12:52;12.70;99.90
32322;DHT22;61553;48.994;8.940;2023-06-10T02:15:18;12.70;99.90
32322;DHT22;61553;48.994;8.940;2023-06-10T02:17:43;12.70;99.90
32322;DHT22;61553;48.994;8.940;2023-06-10T02:20:10;12.70;99.90
32322;DHT22;61553;48.994;8.940;2023-06-10T02:22:37;12.60;99.90
32322;DHT22;61553;48.994;8.940;2023-06-10T02:25:03;12.60;99.90
32322;DHT22;61553;48.994;8.940;2023-06-10T02:27:30;12.50;99.90
32322;DHT22;61553;48.994;8.940;2023-06-10T02:29:57;12.50;99.90
32322;DHT22;61553;48.994;8.940;2023-06-10T02:32:22;12.40;99.90
32322;DHT22;61553;48.994;8.940;2023-06-10T02:34:48;12.40;99.90
32322;DHT22;61553;48.994;8.940;2023-06-10T02:37:18;12.40;99.90
32322;DHT22;61553;48.994;8.940;2023-06-10T02:39:43;12.30;99.90
32322;DHT22;61553;48.994;8.940;2023-06-10T02:42:09;12.30;99.90
32322;DHT22;61553;48.994;8.940;2023-06-10T02:44:36;12.30;99.90
32322;DHT22;61553;48.994;8.940;2023-06-10T02:47:01;12.20;99.90
32322;DHT22;61553;48.994;8.940;2023-06-10T02:49:27;12.20;99.90
32322;DHT22;61553;48.994;8.940;2023-06-10T02:51:53;12.20;99.90
32322;DHT22;61553;48.994;8.940;2023-06-10T02:54:20;12.10;99.90
32322;DHT22;61553;48.994;8.940;2023-06-10T02:56:45;12.10;99.90
32322;DHT22;61553;48.994;8.940;2023-06-10T02:59:13;12.00;99.90
32322;DHT22;61553;48.994;8.940;2023-06-10T03:01:39;12.00;99.90
32322;DHT22;61553;48.994;8.940;2023-06-10T03:04:05;12.00;99.90
32322;DHT22;61553;48.994;8.940;2023-06-10T03:06:31;12.00;99.90
32322;DHT22;61553;48.994;8.940;2023-06-10T03:08:59;12.00;99.90
32322;DHT22;61553;48.994;8.940;2023-06-10T03:11:25;11.90;99.90
32322;DHT22;61553;48.994;8.940;2023-06-10T03:13:51;11.90;99.90
32322;DHT22;61553;48.994;8.940;2023-06-10T03:16:19;11.90;99.90
32322;DHT22;61553;48.994;8.940;2023-06-10T03:18:44;11.90;99.90
32322;DHT22;61553;48.994;8.940;2023-06-10T03:21:10;11.90;99.90
32322;DHT22;61553;48.994;8.940;2023-06-10T03:23:36;11.90;99.90
32322;DHT22;61553;48.994;8.940;2023-06-10T03:26:03;11.90;99.90
32322;DHT22;61553;48.994;8.940;2023-06-10T03:28:30;11.90;99.90
32322;DHT22;61553;48.994;8.940;2023-06-10T03:30:56;11.90;99.90
32322;DHT22;61553;48.994;8.940;2023-06-10T03:33:22;11.90;99.90
32322;DHT22;61553;48.994;8.940;2023-06-10T03:35:47;11.90;99.90
32322;DHT22;61553;48.994;8.940;2023-06-10T03:38:13;12.00;99.90
32322;DHT22;61553;48.994;8.940;2023-06-10T03:40:39;11.90;99.90
32322;DHT22;61553;48.994;8.940;2023-06-10T03:43:04;11.90;99.90
32322;DHT22;61553;48.994;8.940;2023-06-10T03:45:30;11.90;99.90
32322;DHT22;61553;48.994;8.940;2023-06-10T03:47:57;11.90;99.90
32322;DHT22;61553;48.994;8.940;2023-06-10T03:50:23;11.90;99.90
32322;DHT22;61553;48.994;8.940;2023-06-10T03:52:50;11.90;99.90
32322;DHT22;61553;48.994;8.940;2023-06-10T03:55:16;11.90;99.90
32322;DHT22;61553;48.994;8.940;2023-06-10T03:57:42;11.90;99.90
32322;DHT22;61553;48.994;8.940;2023-06-10T04:00:08;11.90;99.90
32322;DHT22;61553;48.994;8.940;2023-06-10T04:02:38;11.90;99.90
32322;DHT22;61553;48.994;8.940;2023-06-10T04:05:11;12.00;99.90
32322;DHT22;61553;48.994;8.940;2023-06-10T04:07:37;12.10;99.90
32322;DHT22;61553;48.994;8.940;2023-06-10T04:10:04;12.10;99.90
32322;DHT22;61553;48.994;8.940;2023-06-10T04:12:30;12.20;99.90
32322;DHT22;61553;48.994;8.940;2023-06-10T04:14:56;12.20;99.90
32322;DHT22;61553;48.994;8.940;2023-06-10T04:17:21;12.30;99.90
32322;DHT22;61553;48.994;8.940;2023-06-10T04:19:47;12.30;99.90
32322;DHT22;61553;48.994;8.940;2023-06-10T04:22:13;12.40;99.90
32322;DHT22;61553;48.994;8.940;2023-06-10T04:24:39;12.40;99.90
32322;DHT22;61553;48.994;8.940;2023-06-10T04:27:05;12.50;99.90
32322;DHT22;61553;48.994;8.940;2023-06-10T04:29:30;12.60;99.90
32322;DHT22;61553;48.994;8.940;2023-06-10T04:31:56;12.70;99.90
32322;DHT22;61553;48.994;8.940;2023-06-10T04:34:21;12.80;99.90
32322;DHT22;61553;48.994;8.940;2023-06-10T04:36:47;12.90;99.90
32322;DHT22;61553;48.994;8.940;2023-06-10T04:39:13;13.00;99.90
32322;DHT22;61553;48.994;8.940;2023-06-10T04:41:38;13.10;99.90
32322;DHT22;61553;48.994;8.940;2023-06-10T04:44:04;13.20;99.90
32322;DHT22;61553;48.994;8.940;2023-06-10T04:46:30;13.30;99.90
32322;DHT22;61553;48.994;8.940;2023-06-10T04:48:57;13.50;99.90
32322;DHT22;61553;48.994;8.940;2023-06-10T04:51:23;13.70;99.90
32322;DHT22;61553;48.994;8.940;2023-06-10T04:53:48;13.90;99.90
32322;DHT22;61553;48.994;8.940;2023-06-10T04:56:14;16.30;99.90
32322;DHT22;61553;48.994;8.940;2023-06-10T04:58:41;19.70;99.90
32322;DHT22;61553;48.994;8.940;2023-06-10T05:01:07;22.60;97.70
32322;DHT22;61553;48.994;8.940;2023-06-10T05:03:32;25.20;86.70
32322;DHT22;61553;48.994;8.940;2023-06-10T05:05:58;27.40;74.70
32322;DHT22;61553;48.994;8.940;2023-06-10T05:08:24;29.10;63.20
32322;DHT22;61553;48.994;8.940;2023-06-10T05:10:49;30.80;57.30
32322;DHT22;61553;48.994;8.940;2023-06-10T05:13:16;31.70;53.20
32322;DHT22;61553;48.994;8.940;2023-06-10T05:15:43;32.70;51.10
32322;DHT22;61553;48.994;8.940;2023-06-10T05:18:10;33.60;48.30
32322;DHT22;61553;48.994;8.940;2023-06-10T05:20:38;34.50;46.20
32322;DHT22;61553;48.994;8.940;2023-06-10T05:23:03;34.60;45.60
32322;DHT22;61553;48.994;8.940;2023-06-10T05:25:32;36.00;43.90
32322;DHT22;61553;48.994;8.940;2023-06-10T05:27:58;35.70;42.40
32322;DHT22;61553;48.994;8.940;2023-06-10T05:30:24;36.40;42.20
32322;DHT22;61553;48.994;8.940;2023-06-10T05:32:52;36.70;41.00
32322;DHT22;61553;48.994;8.940;2023-06-10T05:35:18;37.40;40.50
32322;DHT22;61553;48.994;8.940;2023-06-10T05:37:44;36.60;40.40
32322;DHT22;61553;48.994;8.940;2023-06-10T05:40:10;35.80;41.10
32322;DHT22;61553;48.994;8.940;2023-06-10T05:42:36;36.30;40.80
32322;DHT22;61553;48.994;8.940;2023-06-10T05:45:02;35.70;41.10
32322;DHT22;61553;48.994;8.940;2023-06-10T05:47:28;36.90;40.40
32322;DHT22;61553;48.994;8.940;2023-06-10T05:49:54;38.60;38.90
32322;DHT22;61553;48.994;8.940;2023-06-10T05:52:20;39.10;38.30
32322;DHT22;61553;48.994;8.940;2023-06-10T05:54:46;40.20;37.40
32322;DHT22;61553;48.994;8.940;2023-06-10T05:57:11;40.60;37.20
32322;DHT22;61553;48.994;8.940;2023-06-10T05:59:37;42.10;36.10
32322;DHT22;61553;48.994;8.940;2023-06-10T06:02:03;40.30;36.70
32322;DHT22;61553;48.994;8.940;2023-06-10T06:04:28;41.10;36.80
32322;DHT22;61553;48.994;8.940;2023-06-10T06:06:54;40.50;36.50
32322;DHT22;61553;48.994;8.940;2023-06-10T06:09:20;41.10;35.80
32322;DHT22;61553;48.994;8.940;2023-06-10T06:11:45;40.60;35.50
32322;DHT22;61553;48.994;8.940;2023-06-10T06:14:11;41.00;35.60
32322;DHT22;61553;48.994;8.940;2023-06-10T06:16:37;40.80;35.80
32322;DHT22;61553;48.994;8.940;2023-06-10T06:19:03;41.00;35.80
32322;DHT22;61553;48.994;8.940;2023-06-10T06:21:29;40.60;36.00
32322;DHT22;61553;48.994;8.940;2023-06-10T06:23:54;40.90;36.20
32322;DHT22;61553;48.994;8.940;2023-06-10T06:26:20;41.10;36.20
32322;DHT22;61553;48.994;8.940;2023-06-10T06:28:46;41.10;36.20
32322;DHT22;61553;48.994;8.940;2023-06-10T06:31:11;41.20;37.00
32322;DHT22;61553;48.994;8.940;2023-06-10T06:33:37;40.70;36.60
32322;DHT22;61553;48.994;8.940;2023-06-10T06:36:03;40.40;37.00
32322;DHT22;61553;48.994;8.940;2023-06-10T06:38:28;40.60;36.90
32322;DHT22;61553;48.994;8.940;2023-06-10T06:40:54;39.70;37.40
32322;DHT22;61553;48.994;8.940;2023-06-10T06:43:20;39.90;37.40
32322;DHT22;61553;48.994;8.940;2023-06-10T06:45:45;40.70;37.00
32322;DHT22;61553;48.994;8.940;2023-06-10T06:48:11;40.10;37.60
32322;DHT22;61553;48.994;8.940;2023-06-10T06:50:37;40.10;37.50
32322;DHT22;61553;48.994;8.940;2023-06-10T06:53:04;40.40;37.10
32322;DHT22;61553;48.994;8.940;2023-06-10T06:55:30;40.10;37.20
32322;DHT22;61553;48.994;8.940;2023-06-10T06:57:55;40.40;37.20
32322;DHT22;61553;48.994;8.940;2023-06-10T07:00:21;40.00;37.90
32322;DHT22;61553;48.994;8.940;2023-06-10T07:02:47;40.00;37.10
32322;DHT22;61553;48.994;8.940;2023-06-10T07:05:13;39.90;37.40
32322;DHT22;61553;48.994;8.940;2023-06-10T07:07:39;39.70;37.20
32322;DHT22;61553;48.994;8.940;2023-06-10T07:10:05;39.50;37.50
32322;DHT22;61553;48.994;8.940;2023-06-10T07:12:31;39.90;37.40
32322;DHT22;61553;48.994;8.940;2023-06-10T07:14:56;40.20;36.90
32322;DHT22;61553;48.994;8.940;2023-06-10T07:17:22;39.40;37.70
32322;DHT22;61553;48.994;8.940;2023-06-10T07:19:48;39.30;37.30
32322;DHT22;61553;48.994;8.940;2023-06-10T07:22:14;39.80;37.40
32322;DHT22;61553;48.994;8.940;2023-06-10T07:24:39;40.30;36.70
32322;DHT22;61553;48.994;8.940;2023-06-10T07:27:06;40.70;36.20
32322;DHT22;61553;48.994;8.940;2023-06-10T07:29:32;40.50;36.10
32322;DHT22;61553;48.994;8.940;2023-06-10T07:31:58;40.40;36.20
32322;DHT22;61553;48.994;8.940;2023-06-10T07:34:23;39.80;36.90
32322;DHT22;61553;48.994;8.940;2023-06-10T07:36:49;40.10;37.00
32322;DHT22;61553;48.994;8.940;2023-06-10T07:39:15;40.80;36.50
32322;DHT22;61553;48.994;8.940;2023-06-10T07:41:40;40.70;36.20
32322;DHT22;61553;48.994;8.940;2023-06-10T07:44:06;40.20;36.60
32322;DHT22;61553;48.994;8.940;2023-06-10T07:46:32;40.40;36.00
32322;DHT22;61553;48.994;8.940;2023-06-10T07:48:57;41.10;36.00
32322;DHT22;61553;48.994;8.940;2023-06-10T07:51:23;41.70;35.60
32322;DHT22;61553;48.994;8.940;2023-06-10T07:53:48;42.20;35.30
32322;DHT22;61553;48.994;8.940;2023-06-10T07:56:14;42.80;34.50
32322;DHT22;61553;48.994;8.940;2023-06-10T07:58:40;42.90;34.60
32322;DHT22;61553;48.994;8.940;2023-06-10T08:01:05;42.00;35.10
32322;DHT22;61553;48.994;8.940;2023-06-10T08:03:31;42.30;34.90
32322;DHT22;61553;48.994;8.940;2023-06-10T08:05:57;42.60;35.00
32322;DHT22;61553;48.994;8.940;2023-06-10T08:08:22;42.80;34.30
32322;DHT22;61553;48.994;8.940;2023-06-10T08:10:48;42.30;35.00
32322;DHT22;61553;48.994;8.940;2023-06-10T08:13:14;41.00;35.40
32322;DHT22;61553;48.994;8.940;2023-06-10T08:15:40;40.90;35.80
32322;DHT22;61553;48.994;8.940;2023-06-10T08:18:06;41.50;35.60
32322;DHT22;61553;48.994;8.940;2023-06-10T08:20:31;42.30;35.40
32322;DHT22;61553;48.994;8.940;2023-06-10T08:22:57;43.00;34.80
32322;DHT22;61553;48.994;8.940;2023-06-10T08:25:23;43.00;34.40
32322;DHT22;61553;48.994;8.940;2023-06-10T08:27:49;43.30;34.30
32322;DHT22;61553;48.994;8.940;2023-06-10T08:30:16;43.90;33.50
32322;DHT22;61553;48.994;8.940;2023-06-10T08:32:41;42.90;34.40
32322;DHT22;61553;48.994;8.940;2023-06-10T08:35:07;43.30;34.30
32322;DHT22;61553;48.994;8.940;2023-06-10T08:37:33;43.10;34.10
32322;DHT22;61553;48.994;8.940;2023-06-10T08:39:59;43.50;33.80
32322;DHT22;61553;48.994;8.940;2023-06-10T08:42:43;43.90;33.80
32322;DHT22;61553;48.994;8.940;2023-06-10T08:45:16;43.50;33.70
32322;DHT22;61553;48.994;8.940;2023-06-10T08:47:44;42.40;33.90
32322;DHT22;61553;48.994;8.940;2023-06-10T08:50:11;42.60;34.30
32322;DHT22;61553;48.994;8.940;2023-06-10T08:52:39;42.30;34.70
32322;DHT22;61553;48.994;8.940;2023-06-10T08:55:18;43.00;34.30
32322;DHT22;61553;48.994;8.940;2023-06-10T08:57:48;44.40;33.30
32322;DHT22;61553;48.994;8.940;2023-06-10T09:00:15;45.00;33.00
32322;DHT22;61553;48.994;8.940;2023-06-10T09:02:42;44.30;33.00
32322;DHT22;61553;48.994;8.940;2023-06-10T09:05:09;44.50;33.00
32322;DHT22;61553;48.994;8.940;2023-06-10T09:07:35;43.50;33.80
32322;DHT22;61553;48.994;8.940;2023-06-10T09:10:02;44.10;33.40
32322;DHT22;61553;48.994;8.940;2023-06-10T09:12:33;43.30;34.20
32322;DHT22;61553;48.994;8.940;2023-06-10T09:14:59;44.00;33.40
32322;DHT22;61553;48.994;8.940;2023-06-10T09:17:27;44.40;33.10
32322;DHT22;61553;48.994;8.940;2023-06-10T09:19:52;43.80;33.80
32322;DHT22;61553;48.994;8.940;2023-06-10T09:22:24;42.50;34.20
32322;DHT22;61553;48.994;8.940;2023-06-10T09:25:01;43.30;34.00
32322;DHT22;61553;48.994;8.940;2023-06-10T09:27:30;43.70;33.70
32322;DHT22;61553;48.994;8.940;2023-06-10T09:29:56;43.10;33.80
32322;DHT22;61553;48.994;8.940;2023-06-10T09:32:23;43.30;33.80
32322;DHT22;61553;48.994;8.940;2023-06-10T09:34:49;44.20;32.90
32322;DHT22;61553;48.994;8.940;2023-06-10T09:37:23;43.60;33.60
32322;DHT22;61553;48.994;8.940;2023-06-10T09:40:03;43.50;34.10
32322;DHT22;61553;48.994;8.940;2023-06-10T09:42:32;44.80;33.10
32322;DHT22;61553;48.994;8.940;2023-06-10T09:44:59;44.80;32.70
32322;DHT22;61553;48.994;8.940;2023-06-10T09:47:25;45.80;33.10
32322;DHT22;61553;48.994;8.940;2023-06-10T09:49:51;45.70;32.70
32322;DHT22;61553;48.994;8.940;2023-06-10T09:52:23;45.50;33.00
32322;DHT22;61553;48.994;8.940;2023-06-10T09:55:02;43.70;33.40
32322;DHT22;61553;48.994;8.940;2023-06-10T09:57:33;40.50;35.40
32322;DHT22;61553;48.994;8.940;2023-06-10T10:00:05;38.70;37.20
32322;DHT22;61553;48.994;8.940;2023-06-10T10:02:30;38.50;37.20
32322;DHT22;61553;48.994;8.940;2023-06-10T10:05:05;38.90;36.80
32322;DHT22;61553;48.994;8.940;2023-06-10T10:07:31;39.50;36.80
32322;DHT22;61553;48.994;8.940;2023-06-10T10:09:57;39.70;36.10
32322;DHT22;61553;48.994;8.940;2023-06-10T10:12:23;38.10;37.60
32322;DHT22;61553;48.994;8.940;2023-06-10T10:14:50;38.60;37.50
32322;DHT22;61553;48.994;8.940;2023-06-10T10:17:16;39.60;37.20
32322;DHT22;61553;48.994;8.940;2023-06-10T10:19:49;39.80;36.60
32322;DHT22;61553;48.994;8.940;2023-06-10T10:22:25;39.90;36.80
32322;DHT22;61553;48.994;8.940;2023-06-10T10:25:02;38.60;36.90
32322;DHT22;61553;48.994;8.940;2023-06-10T10:27:59;37.90;38.50
32322;DHT22;61553;48.994;8.940;2023-06-10T10:30:28;37.30;38.80
32322;DHT22;61553;48.994;8.940;2023-06-10T10:33:00;36.00;40.10
32322;DHT22;61553;48.994;8.940;2023-06-10T10:35:31;34.70;40.90
32322;DHT22;61553;48.994;8.940;2023-06-10T10:37:58;34.60;41.70
32322;DHT22;61553;48.994;8.940;2023-06-10T10:40:25;34.60;41.00
32322;DHT22;61553;48.994;8.940;2023-06-10T10:42:52;34.00;40.90
32322;DHT22;61553;48.994;8.940;2023-06-10T10:45:18;33.90;41.50
32322;DHT22;61553;48.994;8.940;2023-06-10T10:47:45;33.60;41.80
32322;DHT22;61553;48.994;8.940;2023-06-10T10:50:18;33.50;40.90
32322;DHT22;61553;48.994;8.940;2023-06-10T10:52:59;33.30;41.70
32322;DHT22;61553;48.994;8.940;2023-06-10T10:55:27;33.20;42.50
32322;DHT22;61553;48.994;8.940;2023-06-10T10:58:02;32.80;43.10
32322;DHT22;61553;48.994;8.940;2023-06-10T11:00:30;32.20;43.40
32322;DHT22;61553;48.994;8.940;2023-06-10T11:03:05;31.80;44.00
32322;DHT22;61553;48.994;8.940;2023-06-10T11:05:43;31.40;44.10
32322;DHT22;61553;48.994;8.940;2023-06-10T11:08:13;31.50;44.70
32322;DHT22;61553;48.994;8.940;2023-06-10T11:10:41;31.20;45.20
32322;DHT22;61553;48.994;8.940;2023-06-10T11:15:38;31.50;44.80
32322;DHT22;61553;48.994;8.940;2023-06-10T11:18:18;31.80;44.80
32322;DHT22;61553;48.994;8.940;2023-06-10T11:26:16;31.60;44.40
32322;DHT22;61553;48.994;8.940;2023-06-10T11:29:02;31.60;43.90
32322;DHT22;61553;48.994;8.940;2023-06-10T11:31:32;31.60;43.70
32322;DHT22;61553;48.994;8.940;2023-06-10T11:33:59;31.80;44.10
32322;DHT22;61553;48.994;8.940;2023-06-10T11:36:26;32.10;43.40
32322;DHT22;61553;48.994;8.940;2023-06-10T11:39:00;32.10;43.30
32322;DHT22;61553;48.994;8.940;2023-06-10T11:41:27;32.00;44.00
32322;DHT22;61553;48.994;8.940;2023-06-10T11:43:55;31.70;44.50
32322;DHT22;61553;48.994;8.940;2023-06-10T11:46:24;31.90;45.10
32322;DHT22;61553;48.994;8.940;2023-06-10T11:48:59;31.80;45.00
32322;DHT22;61553;48.994;8.940;2023-06-10T11:51:26;31.40;44.80
32322;DHT22;61553;48.994;8.940;2023-06-10T11:53:53;31.60;44.70
32322;DHT22;61553;48.994;8.940;2023-06-10T11:56:29;31.70;43.60
32322;DHT22;61553;48.994;8.940;2023-06-10T11:58:55;32.10;44.00
32322;DHT22;61553;48.994;8.940;2023-06-10T12:01:26;31.90;43.70
32322;DHT22;61553;48.994;8.940;2023-06-10T12:04:06;32.40;44.20
32322;DHT22;61553;48.994;8.940;2023-06-10T12:06:43;32.50;43.10
32322;DHT22;61553;48.994;8.940;2023-06-10T12:09:38;32.00;43.40
32322;DHT22;61553;48.994;8.940;2023-06-10T12:12:05;32.10;43.80
32322;DHT22;61553;48.994;8.940;2023-06-10T12:19:57;31.70;43.80
32322;DHT22;61553;48.994;8.940;2023-06-10T12:22:23;31.50;43.90
32322;DHT22;61553;48.994;8.940;2023-06-10T12:25:02;31.30;44.00
32322;DHT22;61553;48.994;8.940;2023-06-10T12:27:29;31.20;43.70
32322;DHT22;61553;48.994;8.940;2023-06-10T12:29:56;31.30;43.80
32322;DHT22;61553;48.994;8.940;2023-06-10T12:32:40;31.30;44.00
32322;DHT22;61553;48.994;8.940;2023-06-10T12:35:06;31.40;43.30
32322;DHT22;61553;48.994;8.940;2023-06-10T12:37:33;31.50;43.70
32322;DHT22;61553;48.994;8.940;2023-06-10T12:40:03;31.60;42.80
32322;DHT22;61553;48.994;8.940;2023-06-10T12:42:32;31.30;44.10
32322;DHT22;61553;48.994;8.940;2023-06-10T12:45:01;31.00;44.40
32322;DHT22;61553;48.994;8.940;2023-06-10T12:47:35;30.70;44.50
32322;DHT22;61553;48.994;8.940;2023-06-10T12:50:01;30.60;45.00
32322;DHT22;61553;48.994;8.940;2023-06-10T12:52:28;30.50;43.90
32322;DHT22;61553;48.994;8.940;2023-06-10T12:54:54;30.50;44.10
32322;DHT22;61553;48.994;8.940;2023-06-10T12:57:21;30.60;43.70
32322;DHT22;61553;48.994;8.940;2023-06-10T12:59:47;30.90;43.10
32322;DHT22;61553;48.994;8.940;2023-06-10T13:02:20;30.90;43.30
32322;DHT22;61553;48.994;8.940;2023-06-10T13:04:49;31.20;42.90
32322;DHT22;61553;48.994;8.940;2023-06-10T13:07:15;31.50;41.60
32322;DHT22;61553;48.994;8.940;2023-06-10T13:09:40;31.90;41.20
32322;DHT22;61553;48.994;8.940;2023-06-10T13:12:06;31.70;41.60
32322;DHT22;61553;48.994;8.940;2023-06-10T13:14:33;31.40;42.70
32322;DHT22;61553;48.994;8.940;2023-06-10T13:16:58;31.20;43.50
32322;DHT22;61553;48.994;8.940;2023-06-10T13:19:24;30.80;42.40
32322;DHT22;61553;48.994;8.940;2023-06-10T13:21:51;30.80;43.00
32322;DHT22;61553;48.994;8.940;2023-06-10T13:24:17;30.90;43.20
32322;DHT22;61553;48.994;8.940;2023-06-10T13:26:42;31.20;42.90
32322;DHT22;61553;48.994;8.940;2023-06-10T13:29:08;31.60;41.50
32322;DHT22;61553;48.994;8.940;2023-06-10T13:31:39;32.00;41.40
32322;DHT22;61553;48.994;8.940;2023-06-10T13:34:05;31.50;42.00
32322;DHT22;61553;48.994;8.940;2023-06-10T13:36:31;31.20;42.40
32322;DHT22;61553;48.994;8.940;2023-06-10T13:38:57;30.90;42.20
32322;DHT22;61553;48.994;8.940;2023-06-10T13:41:22;30.60;42.60
32322;DHT22;61553;48.994;8.940;2023-06-10T13:43:48;30.30;43.60
32322;DHT22;61553;48.994;8.940;2023-06-10T13:46:14;30.10;43.40
32322;DHT22;61553;48.994;8.940;2023-06-10T13:48:39;30.20;44.00
32322;DHT22;61553;48.994;8.940;2023-06-10T13:51:05;30.50;43.10
32322;DHT22;61553;48.994;8.940;2023-06-10T13:53:32;30.80;42.90
32322;DHT22;61553;48.994;8.940;2023-06-10T13:55:57;30.80;42.80
32322;DHT22;61553;48.994;8.940;2023-06-10T13:58:23;31.00;43.60
32322;DHT22;61553;48.994;8.940;2023-06-10T14:00:49;30.80;44.10
32322;DHT22;61553;48.994;8.940;2023-06-10T14:03:14;30.50;43.80
32322;DHT22;61553;48.994;8.940;2023-06-10T14:05:40;30.20;44.00
32322;DHT22;61553;48.994;8.940;2023-06-10T14:08:06;30.30;44.20
32322;DHT22;61553;48.994;8.940;2023-06-10T14:10:31;30.50;43.60
32322;DHT22;61553;48.994;8.940;2023-06-10T14:12:57;30.70;44.00
32322;DHT22;61553;48.994;8.940;2023-06-10T14:15:22;30.90;43.10
32322;DHT22;61553;48.994;8.940;2023-06-10T14:17:48;31.00;43.30
32322;DHT22;61553;48.994;8.940;2023-06-10T14:20:13;30.90;42.00
32322;DHT22;61553;48.994;8.940;2023-06-10T14:22:39;30.90;42.40
32322;DHT22;61553;48.994;8.940;2023-06-10T14:25:06;31.10;42.50
32322;DHT22;61553;48.994;8.940;2023-06-10T14:27:31;31.20;43.30
32322;DHT22;61553;48.994;8.940;2023-06-10T14:29:57;31.00;43.60
32322;DHT22;61553;48.994;8.940;2023-06-10T14:32:23;30.90;44.10
32322;DHT22;61553;48.994;8.940;2023-06-10T14:34:48;30.50;44.70
32322;DHT22;61553;48.994;8.940;2023-06-10T14:37:14;30.40;43.90
32322;DHT22;61553;48.994;8.940;2023-06-10T14:39:39;30.30;44.40
32322;DHT22;61553;48.994;8.940;2023-06-10T14:42:05;30.40;44.50
32322;DHT22;61553;48.994;8.940;2023-06-10T14:44:31;30.50;44.10
32322;DHT22;61553;48.994;8.940;2023-06-10T14:46:57;30.50;44.10
32322;DHT22;61553;48.994;8.940;2023-06-10T14:49:22;30.50;44.20
32322;DHT22;61553;48.994;8.940;2023-06-10T14:51:48;30.70;44.40
32322;DHT22;61553;48.994;8.940;2023-06-10T14:54:15;30.70;44.30
32322;DHT22;61553;48.994;8.940;2023-06-10T14:56:41;30.80;43.80
32322;DHT22;61553;48.994;8.940;2023-06-10T14:59:06;30.60;43.00
32322;DHT22;61553;48.994;8.940;2023-06-10T15:01:32;30.70;43.10
32322;DHT22;61553;48.994;8.940;2023-06-10T15:03:58;30.80;42.70
32322;DHT22;61553;48.994;8.940;2023-06-10T15:06:23;30.90;42.10
32322;DHT22;61553;48.994;8.940;2023-06-10T15:08:49;30.80;41.50
32322;DHT22;61553;48.994;8.940;2023-06-10T15:11:15;30.90;41.70
32322;DHT22;61553;48.994;8.940;2023-06-10T15:13:41;31.10;42.60
32322;DHT22;61553;48.994;8.940;2023-06-10T15:16:06;31.20;43.30
32322;DHT22;61553;48.994;8.940;2023-06-10T15:18:33;31.40;43.00
32322;DHT22;61553;48.994;8.940;2023-06-10T15:20:58;31.30;43.50
32322;DHT22;61553;48.994;8.940;2023-06-10T15:23:24;31.10;43.10
32322;DHT22;61553;48.994;8.940;2023-06-10T15:25:50;30.70;43.50
32322;DHT22;61553;48.994;8.940;2023-06-10T15:28:15;30.50;44.10
32322;DHT22;61553;48.994;8.940;2023-06-10T15:30:41;30.30;44.50
32322;DHT22;61553;48.994;8.940;2023-06-10T15:33:07;30.10;44.10
32322;DHT22;61553;48.994;8.940;2023-06-10T15:35:32;30.10;44.00
32322;DHT22;61553;48.994;8.940;2023-06-10T15:37:58;30.20;43.70
32322;DHT22;61553;48.994;8.940;2023-06-10T15:40:24;30.20;43.90
32322;DHT22;61553;48.994;8.940;2023-06-10T15:42:50;30.10;43.80
32322;DHT22;61553;48.994;8.940;2023-06-10T15:45:15;30.00;44.20
32322;DHT22;61553;48.994;8.940;2023-06-10T15:47:41;30.10;43.90